EDDL

Düsseldorf International Airport

Düsseldorf, Germany
METAR EDDL 161420Z 28010KT 9999 SCT020 BKN050 06/01 Q1012 NOSIG
Observed Flight Rules
Dec-16 @ 14:20 UTC (25 minutes ago) Visual Flight Rules
Wind Visibility Clouds
280° at 10 knots 10,000+ meters
  • Scattered at 2,000' AGL
  • Broken at 5,000' AGL
Temperatures Readings
Current 6°C / 43°F
Dewpoint 1°C / 34°F
Humidity 71%
Altimeter 29.88" Hg
Pressure 1012 hPa
Elevation 44
METAR EDDL 161420Z 28010KT 9999 SCT020 BKN050 06/01 Q1012 NOSIG
Observed Flight Rules
Dec-16 @ 14:20 UTC
(25 minutes ago)
VFR
Wind Visibility
280° at 10 knots 10,000+ meters
Clouds
  • Scattered at 2,000' AGL
  • Broken at 5,000' AGL
Temperature Dewpoint
6°C / 43°F 1°C / 34°F
Humidity Altimeter Pressure
71% 29.88" Hg 1012 hPa